Time;durP1;ratioP1;P1;durP2;ratioP2;P2;SDS_P1;SDS_P2;PMS_P1;PMS_P2;Temp;Humidity;BMP_temperature;BMP_pressure;BME280_temperature;BME280_humidity;BME280_pressure;Samples;Min_cycle;Max_cycle;Signal;HPM_P1;HPM_P2
2021/05/09 00:01:22;;;;;;;6.68;5.28;;;21.50;44.50;;;;;;5111614;28;20407;-40
2021/05/09 00:03:49;;;;;;;5.38;4.88;;;21.50;44.40;;;;;;5110498;27;20036;-39
2021/05/09 00:06:16;;;;;;;6.07;5.13;;;21.50;44.50;;;;;;5111290;28;20048;-41
2021/05/09 00:08:42;;;;;;;6.07;5.47;;;21.50;44.40;;;;;;5110967;28;20502;-40
2021/05/09 00:11:09;;;;;;;7.28;5.55;;;21.50;44.40;;;;;;5109924;28;20075;-40
2021/05/09 00:13:36;;;;;;;6.47;4.93;;;21.50;44.40;;;;;;5110544;27;20055;-40
2021/05/09 00:16:04;;;;;;;6.00;5.32;;;21.50;44.50;;;;;;5110918;28;20043;-40
2021/05/09 00:18:31;;;;;;;5.70;5.10;;;21.50;44.50;;;;;;5110829;28;20100;-40
2021/05/09 00:20:58;;;;;;;6.70;5.32;;;21.50;44.40;;;;;;5111145;27;20051;-40
2021/05/09 00:23:25;;;;;;;6.28;5.20;;;21.50;44.40;;;;;;5110715;28;20043;-40
2021/05/09 00:25:56;;;;;;;6.57;5.53;;;21.40;44.30;;;;;;5110339;28;20092;-41
2021/05/09 00:28:23;;;;;;;6.57;5.18;;;21.50;44.50;;;;;;5111034;28;20047;-44
2021/05/09 00:30:50;;;;;;;6.35;5.43;;;21.40;44.40;;;;;;5109530;28;20044;-40
2021/05/09 00:33:17;;;;;;;6.10;5.45;;;21.50;44.50;;;;;;5110680;28;20093;-39
2021/05/09 00:35:43;;;;;;;6.00;5.18;;;21.50;44.50;;;;;;5110485;28;20100;-40
2021/05/09 00:38:10;;;;;;;5.90;5.15;;;21.50;44.50;;;;;;5110965;28;20097;-40
2021/05/09 00:40:37;;;;;;;6.47;5.18;;;21.50;44.50;;;;;;5101371;28;20388;-40
2021/05/09 00:43:03;;;;;;;5.65;5.03;;;21.50;44.50;;;;;;5110174;28;20461;-40
2021/05/09 00:45:30;;;;;;;7.22;5.35;;;21.50;44.50;;;;;;5111584;28;20515;-40
2021/05/09 00:47:56;;;;;;;6.10;5.35;;;21.40;44.40;;;;;;5100802;28;20054;-40
2021/05/09 00:50:23;;;;;;;5.50;4.90;;;21.50;44.50;;;;;;5109823;28;20042;-40
2021/05/09 00:52:50;;;;;;;5.53;5.03;;;21.40;44.40;;;;;;5110914;28;20040;-40
2021/05/09 00:55:18;;;;;;;5.85;5.25;;;21.50;44.50;;;;;;5110712;28;20135;-45
2021/05/09 00:57:47;;;;;;;5.47;4.47;;;21.50;44.50;;;;;;5110349;28;20044;-45
2021/05/09 01:00:14;;;;;;;6.88;5.43;;;21.40;44.40;;;;;;5111470;28;20055;-45
2021/05/09 01:02:42;;;;;;;6.28;5.35;;;21.40;44.40;;;;;;5110359;28;20448;-47
2021/05/09 01:05:11;;;;;;;7.00;5.03;;;21.40;44.40;;;;;;5110544;28;20131;-45
2021/05/09 01:07:38;;;;;;;6.32;5.38;;;21.50;44.50;;;;;;5103064;28;20054;-45
2021/05/09 01:10:11;;;;;;;5.65;4.80;;;21.50;44.50;;;;;;5114086;28;20051;-45
2021/05/09 01:12:38;;;;;;;7.15;5.53;;;21.40;44.40;;;;;;5113409;27;21084;-43
2021/05/09 01:15:06;;;;;;;6.00;5.00;;;21.40;44.40;;;;;;5104370;28;20051;-45
2021/05/09 01:17:33;;;;;;;7.75;5.45;;;21.40;44.40;;;;;;5114144;27;20066;-47
2021/05/09 01:20:15;;;;;;;5.80;5.00;;;21.50;44.60;;;;;;5114862;28;20116;-42
2021/05/09 01:22:43;;;;;;;6.70;5.78;;;21.50;44.50;;;;;;5115923;28;20071;-41
2021/05/09 01:25:11;;;;;;;5.90;5.07;;;21.40;44.40;;;;;;5116894;27;20052;-42
2021/05/09 01:27:38;;;;;;;5.55;4.93;;;21.40;44.40;;;;;;5116081;27;20160;-40
2021/05/09 01:30:08;;;;;;;5.68;5.07;;;21.40;44.40;;;;;;5113890;28;20055;-40
2021/05/09 01:32:36;;;;;;;6.35;5.18;;;21.40;44.40;;;;;;5114265;28;20664;-41
2021/05/09 01:35:03;;;;;;;5.75;4.85;;;21.40;44.50;;;;;;5112764;28;20044;-45
2021/05/09 01:37:30;;;;;;;5.93;5.32;;;21.40;44.40;;;;;;5114429;28;20059;-44
2021/05/09 01:39:57;;;;;;;6.72;5.25;;;21.40;44.40;;;;;;5113384;28;20089;-42
2021/05/09 01:42:23;;;;;;;5.78;5.18;;;21.40;44.40;;;;;;5113447;28;20476;-40
2021/05/09 01:44:53;;;;;;;6.40;5.57;;;21.50;44.50;;;;;;5114388;27;20135;-40
2021/05/09 01:47:20;;;;;;;5.47;4.97;;;21.40;44.50;;;;;;5113222;28;20145;-40
2021/05/09 01:49:48;;;;;;;6.53;5.07;;;21.40;44.40;;;;;;5112884;28;20148;-40
2021/05/09 01:52:15;;;;;;;6.28;5.50;;;21.50;44.50;;;;;;5103284;28;20040;-40
2021/05/09 01:54:45;;;;;;;6.35;4.95;;;21.40;44.40;;;;;;5112997;27;20051;-40
2021/05/09 01:57:13;;;;;;;5.25;4.75;;;21.40;44.40;;;;;;5113483;27;20052;-41
2021/05/09 01:59:40;;;;;;;5.43;4.80;;;21.40;44.40;;;;;;5113305;28;20491;-40
2021/05/09 02:02:07;;;;;;;6.38;5.32;;;21.50;44.50;;;;;;5112380;27;20055;-40
2021/05/09 02:04:34;;;;;;;5.03;4.53;;;21.40;44.40;;;;;;5114392;27;20139;-40
2021/05/09 02:07:01;;;;;;;6.93;5.45;;;21.40;44.40;;;;;;5101546;28;20044;-40
2021/05/09 02:09:28;;;;;;;5.78;5.00;;;21.40;44.50;;;;;;5113119;27;20051;-41
2021/05/09 02:11:54;;;;;;;5.00;4.50;;;21.40;44.40;;;;;;5103254;28;20457;-42
2021/05/09 02:14:21;;;;;;;5.70;4.70;;;21.40;44.40;;;;;;5112210;28;20524;-40
2021/05/09 02:16:47;;;;;;;6.10;5.50;;;21.40;44.40;;;;;;5112389;28;20100;-39
2021/05/09 02:19:14;;;;;;;6.07;5.28;;;21.40;44.50;;;;;;5112149;28;20055;-41
2021/05/09 02:21:41;;;;;;;5.97;5.38;;;21.40;44.50;;;;;;5112595;27;20478;-40
2021/05/09 02:24:08;;;;;;;6.13;4.97;;;21.40;44.50;;;;;;5114100;27;20061;-43
2021/05/09 02:26:34;;;;;;;5.80;5.13;;;21.40;45.10;;;;;;5112886;28;20092;-40
2021/05/09 02:29:01;;;;;;;5.03;4.50;;;21.40;44.50;;;;;;5112686;28;20043;-40
2021/05/09 02:31:28;;;;;;;6.18;5.32;;;21.40;44.50;;;;;;5103485;28;20098;-40
2021/05/09 02:33:55;;;;;;;4.97;4.47;;;21.40;44.40;;;;;;5112355;28;20039;-40
2021/05/09 02:36:21;;;;;;;6.28;4.90;;;21.40;44.50;;;;;;5113348;28;20073;-40
2021/05/09 02:38:48;;;;;;;5.72;4.90;;;21.40;44.50;;;;;;5112164;28;20564;-40
2021/05/09 02:41:14;;;;;;;5.40;4.90;;;21.40;44.40;;;;;;5111889;27;20044;-40
2021/05/09 02:43:41;;;;;;;5.38;4.88;;;21.40;44.50;;;;;;5103233;28;20050;-40
2021/05/09 02:46:08;;;;;;;6.72;4.95;;;21.40;44.40;;;;;;5112332;28;20459;-39
2021/05/09 02:48:34;;;;;;;6.07;5.05;;;21.40;44.50;;;;;;5100843;28;20044;-40
2021/05/09 02:51:01;;;;;;;6.22;4.50;;;21.40;44.50;;;;;;5113118;28;20055;-40
2021/05/09 02:53:28;;;;;;;6.07;5.07;;;21.40;44.50;;;;;;5111912;28;20120;-41
2021/05/09 02:55:54;;;;;;;6.38;5.10;;;21.40;44.50;;;;;;5112750;28;20380;-40
2021/05/09 02:58:21;;;;;;;5.95;5.10;;;21.40;44.50;;;;;;5112551;28;20105;-39
2021/05/09 03:00:48;;;;;;;5.35;4.68;;;21.40;44.50;;;;;;5111056;28;20051;-40
2021/05/09 03:03:14;;;;;;;5.43;4.70;;;21.40;44.50;;;;;;5103054;28;20067;-40
2021/05/09 03:05:41;;;;;;;5.65;4.93;;;21.40;44.50;;;;;;5100877;28;20050;-41
2021/05/09 03:08:07;;;;;;;5.90;4.78;;;21.40;44.50;;;;;;5111597;27;20079;-41
2021/05/09 03:10:34;;;;;;;5.03;4.53;;;21.40;44.50;;;;;;5112729;28;20069;-42
2021/05/09 03:13:01;;;;;;;6.03;5.00;;;21.40;44.50;;;;;;5111490;27;20457;-40
2021/05/09 03:15:27;;;;;;;5.55;4.70;;;21.40;44.50;;;;;;5091231;28;20043;-41
2021/05/09 03:17:54;;;;;;;5.32;4.55;;;21.40;44.50;;;;;;5091719;28;20047;-39
2021/05/09 03:20:21;;;;;;;6.22;5.13;;;21.40;44.50;;;;;;5090652;28;20076;-40
2021/05/09 03:22:47;;;;;;;5.80;4.75;;;21.40;44.50;;;;;;5091499;28;20044;-43
2021/05/09 03:25:14;;;;;;;5.35;4.65;;;21.40;44.50;;;;;;5091360;28;20048;-40
2021/05/09 03:27:41;;;;;;;5.95;4.97;;;21.40;44.50;;;;;;5090727;28;20176;-42
2021/05/09 03:30:09;;;;;;;5.72;4.53;;;21.40;44.50;;;;;;5091413;28;20048;-41
2021/05/09 03:32:36;;;;;;;5.85;4.85;;;21.40;44.50;;;;;;5091202;28;20044;-40
2021/05/09 03:35:08;;;;;;;5.00;4.50;;;21.40;44.50;;;;;;5091022;28;20119;-40
2021/05/09 03:37:38;;;;;;;6.15;4.90;;;21.40;44.50;;;;;;5090367;28;20407;-40
2021/05/09 03:40:06;;;;;;;5.72;5.10;;;21.40;44.50;;;;;;5090367;28;20040;-39
2021/05/09 03:42:33;;;;;;;5.75;4.72;;;21.40;44.50;;;;;;5091194;28;20052;-40
2021/05/09 03:45:00;;;;;;;5.85;4.97;;;21.40;44.50;;;;;;5091014;28;20101;-40
2021/05/09 03:47:26;;;;;;;5.55;4.88;;;21.40;44.50;;;;;;5090780;28;20079;-39
2021/05/09 03:49:55;;;;;;;5.70;4.40;;;21.40;44.50;;;;;;5091017;28;20068;-40
2021/05/09 03:52:22;;;;;;;5.15;4.65;;;21.40;44.50;;;;;;5091006;28;20545;-40
2021/05/09 03:54:50;;;;;;;5.20;4.70;;;21.40;44.50;;;;;;5090486;28;20093;-41
2021/05/09 03:57:17;;;;;;;5.20;4.70;;;21.40;44.50;;;;;;5091868;28;20055;-40
2021/05/09 03:59:43;;;;;;;5.22;4.40;;;21.40;44.50;;;;;;5090031;28;20047;-40
2021/05/09 04:02:10;;;;;;;6.15;5.00;;;21.40;44.50;;;;;;5090901;28;20048;-41
2021/05/09 04:04:37;;;;;;;5.50;4.68;;;21.40;44.50;;;;;;5091234;28;20044;-40
2021/05/09 04:07:04;;;;;;;4.63;4.10;;;21.40;44.50;;;;;;5088472;28;20517;-41
2021/05/09 04:09:30;;;;;;;4.85;4.30;;;21.40;44.50;;;;;;5091954;28;20498;-40
2021/05/09 04:11:58;;;;;;;5.43;4.63;;;21.40;44.50;;;;;;5089333;28;20044;-41
2021/05/09 04:14:25;;;;;;;5.15;4.53;;;21.40;44.50;;;;;;5101829;28;20567;-40
2021/05/09 04:16:51;;;;;;;6.10;4.82;;;21.40;44.50;;;;;;5111633;28;20128;-41
2021/05/09 04:19:18;;;;;;;5.70;4.60;;;21.40;44.50;;;;;;5111075;28;20046;-41
2021/05/09 04:21:45;;;;;;;5.20;4.50;;;21.40;44.50;;;;;;5111644;28;20384;-43
2021/05/09 04:24:11;;;;;;;5.78;4.78;;;21.40;44.50;;;;;;5111310;28;20048;-46
2021/05/09 04:26:38;;;;;;;5.57;4.78;;;21.40;44.50;;;;;;5109895;28;20135;-44
2021/05/09 04:29:05;;;;;;;5.20;4.70;;;21.40;44.50;;;;;;5111813;28;20476;-46
2021/05/09 04:31:31;;;;;;;6.28;4.93;;;21.40;44.50;;;;;;5111037;28;20100;-42
2021/05/09 04:33:58;;;;;;;6.05;4.53;;;21.40;44.50;;;;;;5109761;28;20061;-44
2021/05/09 04:36:24;;;;;;;6.00;5.05;;;21.40;44.50;;;;;;5111574;28;20542;-44
2021/05/09 04:38:51;;;;;;;6.30;4.50;;;21.40;44.50;;;;;;5110388;28;20058;-43
2021/05/09 04:41:18;;;;;;;5.40;4.90;;;21.40;44.40;;;;;;5080995;28;20039;-41
2021/05/09 04:43:44;;;;;;;5.57;4.43;;;21.40;44.50;;;;;;5111363;28;20052;-48
2021/05/09 04:46:11;;;;;;;6.85;5.00;;;21.40;44.50;;;;;;5110123;28;20051;-42
2021/05/09 04:48:38;;;;;;;6.00;4.10;;;21.40;44.50;;;;;;5110677;28;20399;-40
2021/05/09 04:51:05;;;;;;;4.85;4.35;;;21.40;44.50;;;;;;5110499;28;20043;-39
2021/05/09 04:53:36;;;;;;;4.60;4.18;;;21.40;44.40;;;;;;5110035;28;20036;-40
2021/05/09 04:56:08;;;;;;;5.57;4.40;;;21.40;44.50;;;;;;5110965;28;20050;-43
2021/05/09 04:58:37;;;;;;;4.97;4.47;;;21.40;45.00;;;;;;5109559;28;20047;-40
2021/05/09 05:01:05;;;;;;;4.47;3.83;;;21.40;44.40;;;;;;5110286;28;20066;-40
2021/05/09 05:03:32;;;;;;;5.07;4.57;;;21.40;44.40;;;;;;5111429;28;20568;-42
2021/05/09 05:06:00;;;;;;;5.93;4.15;;;21.40;44.40;;;;;;5110827;28;20044;-40
2021/05/09 05:08:28;;;;;;;4.35;3.85;;;21.40;44.40;;;;;;5110145;28;20094;-40
2021/05/09 05:10:55;;;;;;;4.88;4.38;;;21.50;44.40;;;;;;5110399;28;20051;-40
2021/05/09 05:13:31;;;;;;;5.75;4.93;;;21.50;44.40;;;;;;5108423;28;20055;-40
2021/05/09 05:16:09;;;;;;;5.03;4.50;;;21.50;44.40;;;;;;5110206;28;20565;-44
2021/05/09 05:18:36;;;;;;;4.90;4.38;;;21.50;44.40;;;;;;5110295;28;20415;-41
2021/05/09 05:21:05;;;;;;;4.65;4.07;;;21.50;45.00;;;;;;5109128;28;20812;-41
2021/05/09 05:23:36;;;;;;;6.00;4.47;;;21.40;44.30;;;;;;5111471;28;20048;-41
2021/05/09 05:26:04;;;;;;;5.72;4.57;;;21.50;44.40;;;;;;5109165;28;20059;-44
2021/05/09 05:28:32;;;;;;;4.63;4.22;;;21.50;44.40;;;;;;5109637;28;20051;-42
2021/05/09 05:30:58;;;;;;;5.80;4.68;;;21.50;44.40;;;;;;5110097;28;20052;-42
2021/05/09 05:33:29;;;;;;;4.80;4.20;;;21.50;44.40;;;;;;5109983;28;20039;-42
2021/05/09 05:36:01;;;;;;;5.00;4.47;;;21.50;44.40;;;;;;5110477;28;20069;-40
2021/05/09 05:38:29;;;;;;;5.05;4.53;;;21.50;44.40;;;;;;5110594;28;20051;-39
2021/05/09 05:40:57;;;;;;;4.97;4.47;;;21.50;44.40;;;;;;5109532;28;20059;-39
2021/05/09 05:43:26;;;;;;;4.93;3.97;;;21.50;44.40;;;;;;5110268;28;20109;-39
2021/05/09 05:45:54;;;;;;;5.13;4.50;;;21.50;44.40;;;;;;5109292;28;20051;-40
2021/05/09 05:48:21;;;;;;;5.55;4.00;;;21.50;44.30;;;;;;5110047;28;20482;-39
2021/05/09 05:50:49;;;;;;;5.25;4.70;;;21.50;44.40;;;;;;5110085;28;20050;-40
2021/05/09 05:53:20;;;;;;;4.72;4.05;;;21.50;44.40;;;;;;5110806;28;20548;-40
2021/05/09 05:55:47;;;;;;;5.40;4.55;;;21.50;44.40;;;;;;5113560;28;20039;-41
2021/05/09 05:58:14;;;;;;;4.63;4.10;;;21.50;44.30;;;;;;5113546;28;20052;-40
2021/05/09 06:00:42;;;;;;;4.88;4.18;;;21.50;44.40;;;;;;5111659;28;20047;-40
2021/05/09 06:03:09;;;;;;;4.78;4.28;;;21.50;44.40;;;;;;5102775;28;20069;-40
2021/05/09 06:05:36;;;;;;;4.88;4.40;;;21.50;44.40;;;;;;5113280;28;20052;-39
2021/05/09 06:08:04;;;;;;;4.50;3.90;;;21.50;44.40;;;;;;5111904;28;20491;-41
2021/05/09 06:10:31;;;;;;;4.43;4.03;;;21.50;44.40;;;;;;5114163;27;20050;-40
2021/05/09 06:12:58;;;;;;;4.72;4.22;;;21.50;44.40;;;;;;5099779;28;20059;-40
2021/05/09 06:15:25;;;;;;;4.25;3.85;;;21.50;44.40;;;;;;5112414;28;20087;-40
2021/05/09 06:17:51;;;;;;;5.22;4.28;;;21.50;44.40;;;;;;5113594;28;20528;-40
2021/05/09 06:20:19;;;;;;;5.22;4.43;;;21.50;44.40;;;;;;5112785;27;20119;-39
2021/05/09 06:22:45;;;;;;;5.50;4.47;;;21.50;44.40;;;;;;5113473;28;20075;-40
2021/05/09 06:25:12;;;;;;;4.78;4.28;;;21.50;44.40;;;;;;5113173;28;20059;-41
2021/05/09 06:27:41;;;;;;;5.32;4.50;;;21.50;44.40;;;;;;5112648;28;20036;-40
2021/05/09 06:30:10;;;;;;;5.72;4.50;;;21.50;44.50;;;;;;5112987;27;20047;-40
2021/05/09 06:32:36;;;;;;;4.47;4.07;;;21.50;44.50;;;;;;5112729;28;20046;-40
2021/05/09 06:35:04;;;;;;;5.00;4.50;;;21.50;44.40;;;;;;5112220;27;20040;-40
2021/05/09 06:37:32;;;;;;;4.35;3.78;;;21.50;44.50;;;;;;5113213;28;20472;-41
2021/05/09 06:39:59;;;;;;;4.70;3.97;;;21.50;44.40;;;;;;5112055;28;20502;-40
2021/05/09 06:42:26;;;;;;;4.88;4.20;;;21.50;44.40;;;;;;5113578;27;20059;-40
2021/05/09 06:44:59;;;;;;;4.18;3.78;;;21.50;44.40;;;;;;5113496;28;20055;-41
2021/05/09 06:47:26;;;;;;;4.25;3.60;;;21.50;44.40;;;;;;5112381;28;20126;-40
2021/05/09 06:49:52;;;;;;;4.78;4.20;;;21.50;44.40;;;;;;5112293;27;20077;-40
2021/05/09 06:52:19;;;;;;;4.60;4.13;;;21.50;44.30;;;;;;5112762;28;20046;-40
2021/05/09 06:54:46;;;;;;;4.53;3.88;;;21.50;44.30;;;;;;5111879;27;20392;-40
2021/05/09 06:57:12;;;;;;;6.15;4.60;;;21.50;44.30;;;;;;5112485;28;20447;-40
2021/05/09 06:59:40;;;;;;;4.10;3.70;;;21.50;44.30;;;;;;5111497;28;20054;-40
2021/05/09 07:02:07;;;;;;;5.57;4.18;;;21.50;44.30;;;;;;5112755;27;20047;-40
2021/05/09 07:04:33;;;;;;;4.38;3.88;;;21.50;44.30;;;;;;5112117;28;20097;-40
2021/05/09 07:07:00;;;;;;;4.32;3.90;;;21.50;44.20;;;;;;5111061;28;20447;-40
2021/05/09 07:09:27;;;;;;;4.13;3.65;;;21.50;44.20;;;;;;5083998;28;20092;-39
2021/05/09 07:11:53;;;;;;;4.22;3.80;;;21.50;44.20;;;;;;5111348;28;20491;-40
2021/05/09 07:14:20;;;;;;;4.45;3.97;;;21.50;44.20;;;;;;5099512;28;20044;-40
2021/05/09 07:16:46;;;;;;;4.22;3.83;;;21.50;44.20;;;;;;5113595;27;20044;-40
2021/05/09 07:19:14;;;;;;;4.47;3.72;;;21.50;44.10;;;;;;5111321;28;20047;-41
2021/05/09 07:21:45;;;;;;;4.45;3.88;;;21.50;44.10;;;;;;5111042;28;20054;-40
2021/05/09 07:24:12;;;;;;;4.45;4.05;;;21.50;44.10;;;;;;5112834;27;20092;-40
2021/05/09 07:26:39;;;;;;;4.25;3.83;;;21.50;44.10;;;;;;5111962;27;20427;-40
2021/05/09 07:29:05;;;;;;;5.80;3.78;;;21.50;44.00;;;;;;5111698;27;20050;-40
2021/05/09 07:31:32;;;;;;;4.07;3.55;;;21.50;44.00;;;;;;5112329;28;20047;-39
2021/05/09 07:34:01;;;;;;;4.13;3.65;;;21.50;44.00;;;;;;5110732;28;20048;-40
2021/05/09 07:36:28;;;;;;;4.25;3.70;;;21.50;44.00;;;;;;5111975;28;20513;-40
2021/05/09 07:38:54;;;;;;;4.35;3.50;;;21.50;44.00;;;;;;5101504;28;20124;-40
2021/05/09 07:41:21;;;;;;;3.80;3.40;;;21.50;44.00;;;;;;5111887;27;20445;-41
2021/05/09 07:43:48;;;;;;;3.92;3.53;;;21.50;44.00;;;;;;5112096;28;20135;-41
2021/05/09 07:46:15;;;;;;;3.92;3.53;;;21.50;44.00;;;;;;5098259;28;20047;-40
2021/05/09 07:48:42;;;;;;;4.47;3.78;;;21.50;44.00;;;;;;5110759;28;20043;-40
2021/05/09 07:51:08;;;;;;;3.70;3.13;;;21.50;44.00;;;;;;5111608;28;20127;-46
2021/05/09 07:53:35;;;;;;;4.15;3.58;;;21.50;44.00;;;;;;5110553;28;20443;-41
2021/05/09 07:56:02;;;;;;;3.95;3.20;;;21.50;44.00;;;;;;5111319;27;20502;-41
2021/05/09 07:58:28;;;;;;;4.05;3.22;;;21.50;44.00;;;;;;5111080;28;20047;-41
2021/05/09 08:00:55;;;;;;;5.60;3.78;;;21.50;44.00;;;;;;5110837;28;20055;-41
2021/05/09 08:03:21;;;;;;;3.55;3.17;;;21.50;44.00;;;;;;5111786;28;20055;-41
2021/05/09 08:05:49;;;;;;;5.47;3.67;;;21.50;44.00;;;;;;5110592;28;20122;-41
2021/05/09 08:08:15;;;;;;;3.92;3.53;;;21.50;44.00;;;;;;5111122;28;20039;-42
2021/05/09 08:10:42;;;;;;;3.88;3.10;;;21.60;44.10;;;;;;5111536;28;20054;-42
2021/05/09 08:13:11;;;;;;;3.83;3.25;;;21.50;44.10;;;;;;5109683;27;20071;-46
2021/05/09 08:15:39;;;;;;;3.83;3.45;;;21.50;44.00;;;;;;5110340;28;20470;-48
2021/05/09 08:18:06;;;;;;;4.22;3.55;;;21.60;44.70;;;;;;5110981;28;20564;-45
2021/05/09 08:20:33;;;;;;;3.85;3.33;;;21.60;44.10;;;;;;5109741;28;20048;-42
2021/05/09 08:23:00;;;;;;;4.03;3.63;;;21.60;44.10;;;;;;5111734;28;20051;-40
2021/05/09 08:25:27;;;;;;;4.80;3.58;;;21.60;44.10;;;;;;5111108;28;20097;-42
2021/05/09 08:27:54;;;;;;;3.75;3.10;;;21.60;44.10;;;;;;5110362;28;20048;-44
2021/05/09 08:30:22;;;;;;;3.88;3.30;;;21.60;44.10;;;;;;5111596;28;20056;-44
2021/05/09 08:32:50;;;;;;;3.85;3.45;;;21.60;44.10;;;;;;5109985;28;20044;-40
2021/05/09 08:35:19;;;;;;;3.67;3.25;;;21.60;44.20;;;;;;5110333;28;20043;-44
2021/05/09 08:37:46;;;;;;;3.97;3.38;;;21.60;44.10;;;;;;5110548;28;20487;-42
2021/05/09 08:40:15;;;;;;;3.45;3.10;;;21.60;44.20;;;;;;5109581;28;20093;-41
2021/05/09 08:42:46;;;;;;;3.90;3.22;;;21.60;44.20;;;;;;5111132;28;20062;-43
2021/05/09 08:45:13;;;;;;;3.72;3.30;;;21.60;44.20;;;;;;5110209;28;20537;-42
2021/05/09 08:47:40;;;;;;;3.13;2.83;;;21.60;44.20;;;;;;5109417;28;20040;-40
2021/05/09 08:50:13;;;;;;;3.83;3.20;;;21.60;44.20;;;;;;5112128;28;20051;-40
2021/05/09 08:52:42;;;;;;;3.30;3.00;;;21.60;44.20;;;;;;5110011;28;20047;-40
2021/05/09 08:55:11;;;;;;;5.80;3.53;;;21.60;44.20;;;;;;5111208;28;20395;-41
2021/05/09 08:57:41;;;;;;;4.03;3.10;;;21.60;44.30;;;;;;5100752;28;20052;-42
2021/05/09 09:00:11;;;;;;;3.20;2.70;;;21.60;44.30;;;;;;5109193;28;20055;-42
2021/05/09 09:02:57;;;;;;;4.85;3.05;;;21.60;44.30;;;;;;5101324;28;20051;-41
2021/05/09 09:05:39;;;;;;;4.43;3.10;;;21.60;44.30;;;;;;5111558;28;20406;-40
2021/05/09 09:08:07;;;;;;;3.35;3.05;;;21.60;44.30;;;;;;5110009;28;20376;-41
2021/05/09 09:10:46;;;;;;;3.38;2.92;;;21.60;44.30;;;;;;5109806;28;20092;-40
2021/05/09 09:13:26;;;;;;;3.40;3.00;;;21.60;44.30;;;;;;5110145;28;20071;-40
2021/05/09 09:16:04;;;;;;;4.10;3.30;;;21.60;44.30;;;;;;5108732;28;20093;-41
2021/05/09 09:18:30;;;;;;;3.58;3.20;;;21.60;44.30;;;;;;5110253;28;20734;-41
2021/05/09 09:20:59;;;;;;;3.78;3.00;;;21.60;44.30;;;;;;5110853;28;20074;-42
2021/05/09 09:23:43;;;;;;;4.07;3.05;;;21.60;44.30;;;;;;5109326;28;20501;-40
2021/05/09 09:26:27;;;;;;;3.92;3.00;;;21.60;44.40;;;;;;5109780;28;20051;-41
2021/05/09 09:28:54;;;;;;;4.00;2.95;;;21.60;44.40;;;;;;5113720;28;20047;-40
2021/05/09 09:31:35;;;;;;;5.85;2.90;;;21.60;44.40;;;;;;5113600;28;20452;-41
2021/05/09 09:34:03;;;;;;;3.83;2.70;;;21.60;44.40;;;;;;5113533;28;20150;-42
2021/05/09 09:36:30;;;;;;;2.60;2.40;;;21.60;44.40;;;;;;5115075;28;20052;-41
2021/05/09 09:38:57;;;;;;;3.92;3.08;;;21.60;44.40;;;;;;5113939;27;20047;-40
2021/05/09 09:41:24;;;;;;;7.22;2.92;;;21.60;44.40;;;;;;5113573;27;20453;-40
2021/05/09 09:44:08;;;;;;;2.92;2.58;;;21.60;45.00;;;;;;5102128;28;20055;-41
2021/05/09 09:46:50;;;;;;;3.15;2.70;;;21.60;44.50;;;;;;5113395;28;20051;-42
2021/05/09 09:49:31;;;;;;;3.72;2.85;;;21.70;44.50;;;;;;5112713;28;20054;-41
2021/05/09 09:52:02;;;;;;;3.40;2.60;;;21.70;44.50;;;;;;5114028;28;20175;-41
2021/05/09 09:54:38;;;;;;;4.38;2.60;;;21.60;44.50;;;;;;5112849;27;20107;-39
2021/05/09 09:57:25;;;;;;;3.10;2.42;;;21.70;44.50;;;;;;5113585;27;20055;-41
2021/05/09 10:00:13;;;;;;;4.70;3.10;;;21.70;44.50;;;;;;5101712;28;20055;-39
2021/05/09 10:02:42;;;;;;;3.17;2.42;;;21.70;44.50;;;;;;5112067;28;20044;-41
2021/05/09 10:05:10;;;;;;;3.25;2.70;;;21.70;44.50;;;;;;5113921;27;20043;-41
2021/05/09 10:07:38;;;;;;;3.22;2.72;;;21.70;44.60;;;;;;5113474;28;20047;-40
2021/05/09 10:10:05;;;;;;;3.53;2.83;;;21.70;44.60;;;;;;5111980;28;20054;-44
2021/05/09 10:12:32;;;;;;;2.95;2.65;;;21.70;44.60;;;;;;5113436;28;20042;-40
2021/05/09 10:14:58;;;;;;;2.83;2.55;;;21.70;44.60;;;;;;5112922;28;20066;-40
2021/05/09 10:17:26;;;;;;;5.70;3.17;;;21.70;44.60;;;;;;5113278;27;20050;-40
2021/05/09 10:19:53;;;;;;;3.00;2.65;;;21.70;44.60;;;;;;5113166;28;20096;-41
2021/05/09 10:22:31;;;;;;;4.32;2.60;;;21.70;44.60;;;;;;5113173;28;20047;-43
2021/05/09 10:24:59;;;;;;;3.63;2.90;;;21.70;44.60;;;;;;5100429;28;20487;-41
2021/05/09 10:27:41;;;;;;;4.00;2.53;;;21.70;44.60;;;;;;5113438;28;20043;-41
2021/05/09 10:30:10;;;;;;;4.28;2.80;;;21.70;44.60;;;;;;5112379;28;20503;-40
2021/05/09 10:32:36;;;;;;;5.28;2.63;;;21.70;44.60;;;;;;5113597;27;20058;-42
2021/05/09 10:35:06;;;;;;;2.95;2.47;;;21.70;44.60;;;;;;5113422;28;20101;-40
2021/05/09 10:37:35;;;;;;;2.97;2.67;;;21.70;44.60;;;;;;5112301;27;20047;-41
2021/05/09 10:40:26;;;;;;;3.20;2.78;;;21.70;44.60;;;;;;5111965;27;20505;-40
2021/05/09 10:43:05;;;;;;;3.25;2.55;;;21.70;44.90;;;;;;5113276;28;20499;-40
2021/05/09 10:45:40;;;;;;;3.00;2.58;;;21.70;44.70;;;;;;5112731;27;20425;-41
2021/05/09 10:48:24;;;;;;;3.20;2.65;;;21.70;44.70;;;;;;5112916;28;20047;-40
2021/05/09 10:50:50;;;;;;;3.08;2.60;;;21.70;44.70;;;;;;5112835;28;20415;-41
2021/05/09 10:53:35;;;;;;;3.22;2.88;;;21.70;44.70;;;;;;5112221;28;20039;-40
2021/05/09 10:56:06;;;;;;;2.40;2.08;;;21.70;44.70;;;;;;5111715;28;20051;-40
2021/05/09 10:58:50;;;;;;;3.03;2.45;;;21.70;44.70;;;;;;5112133;28;20507;-41
2021/05/09 11:01:28;;;;;;;3.50;2.50;;;21.70;44.70;;;;;;5113171;27;20044;-42
2021/05/09 11:03:58;;;;;;;4.43;2.25;;;21.70;44.70;;;;;;5112506;27;20055;-40
2021/05/09 11:06:27;;;;;;;3.42;2.80;;;21.70;44.20;;;;;;5113277;27;20483;-41
2021/05/09 11:09:03;;;;;;;2.72;2.47;;;21.70;44.70;;;;;;5112140;28;20100;-40
2021/05/09 11:11:29;;;;;;;4.82;2.42;;;21.70;44.70;;;;;;5111039;28;20483;-40
2021/05/09 11:13:59;;;;;;;3.83;2.65;;;21.70;44.70;;;;;;5112044;28;20138;-40
2021/05/09 11:16:29;;;;;;;2.88;2.58;;;21.70;44.70;;;;;;5111775;28;20039;-48
2021/05/09 11:18:57;;;;;;;3.08;2.38;;;21.70;44.70;;;;;;5113059;27;20051;-44
2021/05/09 11:21:32;;;;;;;2.88;2.28;;;21.70;44.70;;;;;;5111163;28;20056;-45
2021/05/09 11:23:59;;;;;;;3.35;2.50;;;21.70;44.70;;;;;;5110255;28;20055;-46
2021/05/09 11:26:43;;;;;;;2.80;2.40;;;21.70;44.70;;;;;;5088883;27;20046;-43
2021/05/09 11:29:12;;;;;;;2.85;2.58;;;21.70;44.70;;;;;;5111610;28;20050;-48
2021/05/09 11:31:44;;;;;;;3.13;2.47;;;21.70;44.70;;;;;;5109851;28;20047;-45
2021/05/09 11:34:11;;;;;;;3.15;2.25;;;21.70;44.70;;;;;;5111887;27;20039;-45
2021/05/09 11:36:39;;;;;;;4.70;2.78;;;21.70;44.70;;;;;;5100896;28;20059;-44
2021/05/09 11:39:12;;;;;;;4.18;2.28;;;21.70;44.70;;;;;;5111341;27;20086;-48
2021/05/09 11:41:55;;;;;;;2.53;2.22;;;21.70;44.70;;;;;;5111675;28;20051;-42
2021/05/09 11:44:26;;;;;;;3.00;2.45;;;21.70;44.70;;;;;;5111219;28;20097;-45
2021/05/09 11:46:54;;;;;;;2.90;2.60;;;21.70;44.70;;;;;;5111317;28;20162;-41
2021/05/09 11:49:29;;;;;;;2.58;2.28;;;21.70;44.70;;;;;;5111686;28;20043;-49
2021/05/09 11:52:04;;;;;;;3.67;2.20;;;21.70;44.70;;;;;;5111723;27;20112;-42
2021/05/09 11:54:34;;;;;;;2.72;2.35;;;21.70;44.70;;;;;;5109929;28;20050;-45
2021/05/09 11:57:05;;;;;;;3.75;2.50;;;21.70;44.70;;;;;;5111680;28;20134;-46
2021/05/09 11:59:50;;;;;;;3.05;2.20;;;21.70;44.70;;;;;;5099556;28;20044;-43
2021/05/09 12:02:18;;;;;;;2.47;2.28;;;21.70;44.70;;;;;;5111028;28;20536;-41
2021/05/09 12:05:04;;;;;;;2.47;2.22;;;21.70;44.70;;;;;;5112085;28;20073;-41
2021/05/09 12:07:35;;;;;;;3.58;2.30;;;21.70;44.70;;;;;;5110464;28;20050;-40
2021/05/09 12:10:26;;;;;;;3.35;2.42;;;21.70;44.70;;;;;;5101229;28;20118;-41
2021/05/09 12:13:07;;;;;;;3.03;2.55;;;21.70;44.70;;;;;;5103357;27;20051;-41
2021/05/09 12:15:38;;;;;;;3.55;2.70;;;21.70;44.70;;;;;;5110888;28;20039;-40
2021/05/09 12:18:05;;;;;;;3.63;2.35;;;21.70;44.70;;;;;;5109699;27;20047;-41
2021/05/09 12:20:37;;;;;;;2.92;2.60;;;21.70;44.70;;;;;;5111522;28;20096;-40
2021/05/09 12:23:18;;;;;;;2.65;2.10;;;21.70;44.70;;;;;;5110498;28;20051;-42
2021/05/09 12:25:47;;;;;;;2.53;2.30;;;21.70;44.70;;;;;;5110224;28;20081;-42
2021/05/09 12:28:31;;;;;;;2.55;2.30;;;21.70;44.70;;;;;;5111639;28;20064;-42
2021/05/09 12:31:12;;;;;;;2.35;2.05;;;21.70;44.70;;;;;;5109627;28;20058;-43
2021/05/09 12:33:38;;;;;;;2.72;2.42;;;21.70;44.70;;;;;;5110360;27;20073;-42
2021/05/09 12:36:20;;;;;;;3.00;2.60;;;21.70;44.70;;;;;;5111594;28;20407;-41
2021/05/09 12:38:47;;;;;;;2.28;2.03;;;21.70;44.70;;;;;;5110551;28;20043;-41
2021/05/09 12:41:15;;;;;;;2.30;2.10;;;21.70;44.70;;;;;;5110380;28;20061;-41
2021/05/09 12:43:52;;;;;;;2.85;2.28;;;21.70;44.70;;;;;;5110664;28;20079;-40
2021/05/09 12:46:47;;;;;;;3.80;2.50;;;21.70;44.70;;;;;;5109861;28;20048;-41
2021/05/09 12:49:16;;;;;;;3.40;2.40;;;21.70;44.70;;;;;;5110022;28;20462;-43
2021/05/09 12:52:05;;;;;;;2.47;2.08;;;21.70;44.70;;;;;;5111613;28;20048;-41
2021/05/09 12:54:46;;;;;;;2.85;2.30;;;21.70;44.70;;;;;;5110482;28;20040;-40
2021/05/09 12:57:23;;;;;;;3.08;2.22;;;21.70;44.70;;;;;;5109659;28;20068;-44
2021/05/09 12:59:55;;;;;;;2.47;2.22;;;21.70;44.70;;;;;;5111774;28;20047;-43